createdAt,value
2018-12-06T00:00:50.550Z,35.17
2018-12-06T00:09:51.766Z,34.93
2018-12-06T00:19:23.508Z,33.70
2018-12-06T00:31:28.929Z,39.27
2018-12-06T00:41:01.238Z,33.67
2018-12-06T01:00:41.942Z,35.63
2018-12-06T01:06:24.920Z,41.50
2018-12-06T01:09:13.834Z,33.05
2018-12-06T01:19:05.518Z,35.97
2018-12-06T01:21:54.415Z,33.30
2018-12-06T01:51:26.648Z,38.67
2018-12-06T02:00:05.837Z,42.17
2018-12-06T02:03:12.345Z,38.40
2018-12-06T02:23:07.257Z,38.73
2018-12-06T02:29:04.217Z,31.63
2018-12-06T02:34:41.258Z,40.30
2018-12-06T02:40:39.881Z,37.48
2018-12-06T02:43:28.794Z,36.48
2018-12-06T02:55:59.460Z,42.27
2018-12-06T03:01:59.457Z,46.57
2018-12-06T03:11:47.349Z,46.07
2018-12-06T03:17:50.415Z,45.43
2018-12-06T03:20:39.355Z,49.60
2018-12-06T03:23:28.286Z,40.80
2018-12-06T03:29:44.402Z,41.40
2018-12-06T03:48:19.106Z,39.03
2018-12-06T04:03:40.894Z,40.43
2018-12-06T04:09:18.624Z,36.43
2018-12-06T04:25:49.793Z,39.30
2018-12-06T04:28:38.793Z,36.70
2018-12-06T04:44:16.284Z,43.40
2018-12-06T04:47:05.230Z,67.67
2018-12-06T04:55:43.369Z,29.93
2018-12-06T05:10:52.761Z,53.38
2018-12-06T05:16:30.469Z,34.07
2018-12-06T05:28:35.354Z,61.47
2018-12-06T05:38:08.674Z,46.50
2018-12-06T05:50:34.361Z,45.93
2018-12-06T06:03:02.547Z,37.70
2018-12-06T06:11:41.774Z,33.10
2018-12-06T06:17:37.046Z,22.63
2018-12-06T06:20:26.073Z,24.23
2018-12-06T06:44:54.965Z,29.10
2018-12-06T06:53:46.234Z,34.77
2018-12-06T07:07:01.417Z,47.88
2018-12-06T07:13:34.298Z,44.90
2018-12-06T07:16:23.208Z,39.40
2018-12-06T07:19:12.187Z,40.47
2018-12-06T07:28:04.788Z,34.53
2018-12-06T07:37:33.849Z,49.07
2018-12-06T07:43:50.110Z,42.70
2018-12-06T07:46:39.013Z,43.73
2018-12-06T07:52:21.987Z,38.30
2018-12-06T08:03:54.185Z,37.30
2018-12-06T08:06:24.215Z,29.33
2018-12-06T08:08:54.293Z,34.77
2018-12-06T08:11:24.624Z,29.93
2018-12-06T08:13:54.681Z,29.37
2018-12-06T08:16:25.098Z,36.53
2018-12-06T08:18:55.145Z,31.20
2018-12-06T08:21:25.181Z,27.22
2018-12-06T08:23:55.282Z,26.90
2018-12-06T08:26:25.321Z,25.77
2018-12-06T08:28:55.346Z,27.77
2018-12-06T08:31:25.443Z,25.83
2018-12-06T08:33:55.799Z,23.47
2018-12-06T08:36:26.073Z,30.40
2018-12-06T08:38:57.079Z,29.63
2018-12-06T08:41:27.471Z,20.43
2018-12-06T08:44:00.466Z,17.57
2018-12-06T08:46:30.541Z,17.00
2018-12-06T08:49:03.142Z,18.00
2018-12-06T08:51:32.546Z,14.63
2018-12-06T08:54:02.693Z,25.10
2018-12-06T08:56:32.725Z,16.53
2018-12-06T08:59:02.772Z,13.30
2018-12-06T09:01:32.851Z,11.33
2018-12-06T09:04:02.893Z,10.78
2018-12-06T09:06:33.849Z,19.77
2018-12-06T09:09:04.722Z,19.02
2018-12-06T09:11:34.760Z,15.37
2018-12-06T09:14:04.797Z,17.90
2018-12-06T09:16:35.236Z,14.90
2018-12-06T09:19:05.242Z,15.00
2018-12-06T09:21:35.327Z,16.52
2018-12-06T09:24:05.465Z,13.67
2018-12-06T09:26:35.509Z,14.60
2018-12-06T09:29:05.533Z,10.70
2018-12-06T09:31:35.608Z,13.40
2018-12-06T09:34:09.245Z,10.80
2018-12-06T09:36:39.961Z,10.97
2018-12-06T09:39:11.468Z,10.07
2018-12-06T09:41:41.502Z,9.23
2018-12-06T09:44:12.158Z,13.33
2018-12-06T09:46:42.497Z,13.10
2018-12-06T09:49:12.885Z,12.10
2018-12-06T09:51:42.910Z,9.60
2018-12-06T09:54:13.020Z,13.60
2018-12-06T09:56:43.149Z,14.53
2018-12-06T09:59:13.186Z,9.97
2018-12-06T10:01:43.677Z,18.73
2018-12-06T10:04:13.701Z,16.27
2018-12-06T10:06:45.063Z,10.93
2018-12-06T10:09:16.177Z,16.23
2018-12-06T10:11:46.211Z,11.60
2018-12-06T10:14:19.604Z,9.55
2018-12-06T10:16:49.784Z,13.73
2018-12-06T10:19:22.532Z,10.40
2018-12-06T10:21:52.584Z,9.50
2018-12-06T10:24:22.973Z,8.35
2018-12-06T10:26:53.010Z,9.43
2018-12-06T10:29:23.037Z,11.13
2018-12-06T10:31:53.098Z,12.03
2018-12-06T10:34:23.149Z,11.40
2018-12-06T10:36:53.173Z,11.87
2018-12-06T10:39:23.539Z,9.77
2018-12-06T10:41:53.569Z,9.33
2018-12-06T10:44:31.322Z,15.77
2018-12-06T10:47:01.952Z,9.97
2018-12-06T10:49:32.631Z,18.57
2018-12-06T10:52:02.717Z,10.17
2018-12-06T10:54:32.798Z,11.10
2018-12-06T10:57:03.149Z,9.15
2018-12-06T10:59:33.189Z,9.60
2018-12-06T11:02:25.441Z,10.10
2018-12-06T11:04:55.480Z,14.07
2018-12-06T11:07:25.525Z,10.20
2018-12-06T11:09:55.580Z,13.23
2018-12-06T11:12:27.408Z,12.10
2018-12-06T11:14:57.800Z,8.57
2018-12-06T11:17:28.190Z,8.70
2018-12-06T11:19:58.224Z,12.10
2018-12-06T11:22:30.089Z,11.40
2018-12-06T11:25:00.161Z,10.43
2018-12-06T11:27:30.196Z,11.50
2018-12-06T11:30:00.234Z,14.03
2018-12-06T11:32:30.554Z,11.20
2018-12-06T11:35:00.599Z,11.40
2018-12-06T11:37:30.651Z,12.90
2018-12-06T11:40:00.717Z,12.07
2018-12-06T11:42:30.772Z,10.73
2018-12-06T11:45:00.828Z,12.78
2018-12-06T11:47:31.343Z,11.75
2018-12-06T11:50:01.501Z,12.37
2018-12-06T11:52:31.535Z,15.10
2018-12-06T11:55:01.979Z,15.17
2018-12-06T11:57:32.330Z,12.50
2018-12-06T12:00:02.371Z,12.90
2018-12-06T12:02:33.822Z,14.63
2018-12-06T12:05:03.881Z,17.65
2018-12-06T12:07:33.917Z,12.60
2018-12-06T12:10:06.327Z,14.33
2018-12-06T12:12:36.385Z,13.47
2018-12-06T12:15:08.055Z,10.63
2018-12-06T12:17:38.386Z,10.90
2018-12-06T12:20:11.255Z,10.63
2018-12-06T12:22:41.854Z,10.70
2018-12-06T12:25:11.905Z,8.98
2018-12-06T12:27:41.950Z,10.53
2018-12-06T12:30:12.022Z,10.23
2018-12-06T12:32:42.595Z,11.10
2018-12-06T12:35:12.649Z,8.60
2018-12-06T12:37:43.453Z,11.80
2018-12-06T12:40:13.887Z,10.03
2018-12-06T12:42:43.929Z,8.67
2018-12-06T12:45:16.482Z,9.30
2018-12-06T12:47:47.019Z,8.23
2018-12-06T12:50:17.965Z,8.83
2018-12-06T12:52:48.121Z,9.20
2018-12-06T12:55:19.439Z,11.42
2018-12-06T12:57:51.640Z,8.17
2018-12-06T13:00:21.676Z,12.35
2018-12-06T13:02:52.534Z,12.30
2018-12-06T13:05:23.057Z,10.98
2018-12-06T13:07:53.115Z,8.33
2018-12-06T13:10:24.734Z,8.73
2018-12-06T13:12:55.196Z,10.00
2018-12-06T13:15:25.309Z,15.80
2018-12-06T13:17:55.450Z,8.83
2018-12-06T13:20:25.499Z,8.10
2018-12-06T13:22:55.525Z,9.60
2018-12-06T13:25:25.590Z,10.20
2018-12-06T13:27:55.634Z,8.50
2018-12-06T13:30:25.682Z,7.70
2018-12-06T13:32:55.785Z,6.50
2018-12-06T13:35:25.860Z,6.00
